sensor_id;sensor_type;location;lat;lon;timestamp;temperature;humidity
17632;DHT22;8934;51.194;17.150;2023-05-01T00:00:39;1.50;99.90
17632;DHT22;8934;51.194;17.150;2023-05-01T00:03:26;1.50;99.90
17632;DHT22;8934;51.194;17.150;2023-05-01T00:06:14;1.50;99.90
17632;DHT22;8934;51.194;17.150;2023-05-01T00:09:02;1.40;99.90
17632;DHT22;8934;51.194;17.150;2023-05-01T00:11:49;1.40;99.90
17632;DHT22;8934;51.194;17.150;2023-05-01T00:14:37;1.30;99.90
17632;DHT22;8934;51.194;17.150;2023-05-01T00:17:26;1.30;99.90
17632;DHT22;8934;51.194;17.150;2023-05-01T00:20:14;1.30;99.90
17632;DHT22;8934;51.194;17.150;2023-05-01T00:23:01;1.20;99.90
17632;DHT22;8934;51.194;17.150;2023-05-01T00:25:49;1.20;99.90
17632;DHT22;8934;51.194;17.150;2023-05-01T00:28:37;1.20;99.90
17632;DHT22;8934;51.194;17.150;2023-05-01T00:31:24;1.10;99.90
17632;DHT22;8934;51.194;17.150;2023-05-01T00:34:13;1.10;99.90
17632;DHT22;8934;51.194;17.150;2023-05-01T00:37:01;1.00;99.90
17632;DHT22;8934;51.194;17.150;2023-05-01T00:39:49;1.00;99.90
17632;DHT22;8934;51.194;17.150;2023-05-01T00:42:37;1.00;99.90
17632;DHT22;8934;51.194;17.150;2023-05-01T00:45:26;0.90;99.90
17632;DHT22;8934;51.194;17.150;2023-05-01T00:48:14;0.90;99.90
17632;DHT22;8934;51.194;17.150;2023-05-01T00:51:04;0.90;99.90
17632;DHT22;8934;51.194;17.150;2023-05-01T00:53:54;0.90;99.90
17632;DHT22;8934;51.194;17.150;2023-05-01T00:56:42;0.90;99.90
17632;DHT22;8934;51.194;17.150;2023-05-01T00:59:29;0.90;99.90
17632;DHT22;8934;51.194;17.150;2023-05-01T01:02:17;0.90;99.90
17632;DHT22;8934;51.194;17.150;2023-05-01T01:05:06;0.80;99.90
17632;DHT22;8934;51.194;17.150;2023-05-01T01:08:04;0.80;99.90
17632;DHT22;8934;51.194;17.150;2023-05-01T01:11:03;0.80;99.90
17632;DHT22;8934;51.194;17.150;2023-05-01T01:13:58;0.80;99.90
17632;DHT22;8934;51.194;17.150;2023-05-01T01:16:52;0.80;99.90
17632;DHT22;8934;51.194;17.150;2023-05-01T01:23:49;0.70;99.90
17632;DHT22;8934;51.194;17.150;2023-05-01T01:27:06;0.60;99.90
17632;DHT22;8934;51.194;17.150;2023-05-01T01:36:24;0.40;99.90
17632;DHT22;8934;51.194;17.150;2023-05-01T01:39:24;0.40;99.90
17632;DHT22;8934;51.194;17.150;2023-05-01T01:42:18;0.40;99.90
17632;DHT22;8934;51.194;17.150;2023-05-01T01:45:16;0.40;99.90
17632;DHT22;8934;51.194;17.150;2023-05-01T01:48:05;0.30;99.90
17632;DHT22;8934;51.194;17.150;2023-05-01T01:50:57;0.30;99.90
17632;DHT22;8934;51.194;17.150;2023-05-01T01:53:50;0.30;99.90
17632;DHT22;8934;51.194;17.150;2023-05-01T01:56:41;0.20;99.90
17632;DHT22;8934;51.194;17.150;2023-05-01T01:59:31;0.20;99.90
17632;DHT22;8934;51.194;17.150;2023-05-01T02:02:22;0.10;99.90
17632;DHT22;8934;51.194;17.150;2023-05-01T02:05:14;0.10;99.90
17632;DHT22;8934;51.194;17.150;2023-05-01T02:08:03;0.10;99.90
17632;DHT22;8934;51.194;17.150;2023-05-01T02:10:53;0.10;99.90
17632;DHT22;8934;51.194;17.150;2023-05-01T02:13:48;0.00;99.90
17632;DHT22;8934;51.194;17.150;2023-05-01T02:16:37;0.00;99.90
17632;DHT22;8934;51.194;17.150;2023-05-01T02:19:26;0.00;99.90
17632;DHT22;8934;51.194;17.150;2023-05-01T02:22:16;0.00;99.90
17632;DHT22;8934;51.194;17.150;2023-05-01T02:25:08;-0.10;99.90
17632;DHT22;8934;51.194;17.150;2023-05-01T02:28:00;-0.10;99.90
17632;DHT22;8934;51.194;17.150;2023-05-01T02:30:49;-0.10;99.90
17632;DHT22;8934;51.194;17.150;2023-05-01T02:33:38;-0.10;99.90
17632;DHT22;8934;51.194;17.150;2023-05-01T02:36:27;-0.10;99.90
17632;DHT22;8934;51.194;17.150;2023-05-01T02:39:14;-0.10;99.90
17632;DHT22;8934;51.194;17.150;2023-05-01T02:42:02;-0.10;99.90
17632;DHT22;8934;51.194;17.150;2023-05-01T02:44:56;-0.10;99.90
17632;DHT22;8934;51.194;17.150;2023-05-01T02:47:47;-0.10;99.90
17632;DHT22;8934;51.194;17.150;2023-05-01T02:50:37;-0.20;99.90
17632;DHT22;8934;51.194;17.150;2023-05-01T02:53:26;-0.10;99.90
17632;DHT22;8934;51.194;17.150;2023-05-01T02:56:21;-0.10;99.90
17632;DHT22;8934;51.194;17.150;2023-05-01T02:59:09;-0.20;99.90
17632;DHT22;8934;51.194;17.150;2023-05-01T03:01:58;-0.20;99.90
17632;DHT22;8934;51.194;17.150;2023-05-01T03:04:46;-0.30;99.90
17632;DHT22;8934;51.194;17.150;2023-05-01T03:07:33;-0.30;99.90
17632;DHT22;8934;51.194;17.150;2023-05-01T03:10:21;-0.30;99.90
17632;DHT22;8934;51.194;17.150;2023-05-01T03:13:09;-0.30;99.90
17632;DHT22;8934;51.194;17.150;2023-05-01T03:15:57;-0.40;99.90
17632;DHT22;8934;51.194;17.150;2023-05-01T03:18:46;-0.40;99.90
17632;DHT22;8934;51.194;17.150;2023-05-01T03:21:35;-0.30;99.90
17632;DHT22;8934;51.194;17.150;2023-05-01T03:24:23;-0.40;99.90
17632;DHT22;8934;51.194;17.150;2023-05-01T03:27:10;-0.30;99.90
17632;DHT22;8934;51.194;17.150;2023-05-01T03:29:58;-0.40;99.90
17632;DHT22;8934;51.194;17.150;2023-05-01T03:32:49;-0.30;99.90
17632;DHT22;8934;51.194;17.150;2023-05-01T03:35:45;-0.30;99.90
17632;DHT22;8934;51.194;17.150;2023-05-01T03:38:34;-0.30;99.90
17632;DHT22;8934;51.194;17.150;2023-05-01T03:41:25;-0.30;99.90
17632;DHT22;8934;51.194;17.150;2023-05-01T03:44:39;-0.30;99.90
17632;DHT22;8934;51.194;17.150;2023-05-01T03:47:26;-0.30;99.90
17632;DHT22;8934;51.194;17.150;2023-05-01T03:50:14;-0.30;99.90
17632;DHT22;8934;51.194;17.150;2023-05-01T03:53:06;-0.30;99.90
17632;DHT22;8934;51.194;17.150;2023-05-01T03:55:53;-0.30;99.90
17632;DHT22;8934;51.194;17.150;2023-05-01T03:58:42;-0.20;99.90
17632;DHT22;8934;51.194;17.150;2023-05-01T04:01:29;-0.20;99.90
17632;DHT22;8934;51.194;17.150;2023-05-01T04:04:19;-0.10;99.90
17632;DHT22;8934;51.194;17.150;2023-05-01T04:07:13;-0.10;99.90
17632;DHT22;8934;51.194;17.150;2023-05-01T04:10:05;0.00;99.90
17632;DHT22;8934;51.194;17.150;2023-05-01T04:12:58;0.00;99.90
17632;DHT22;8934;51.194;17.150;2023-05-01T04:15:46;0.10;99.90
17632;DHT22;8934;51.194;17.150;2023-05-01T04:18:34;0.20;99.90
17632;DHT22;8934;51.194;17.150;2023-05-01T04:21:22;0.30;99.90
17632;DHT22;8934;51.194;17.150;2023-05-01T04:24:11;0.40;99.90
17632;DHT22;8934;51.194;17.150;2023-05-01T04:27:00;0.50;99.90
17632;DHT22;8934;51.194;17.150;2023-05-01T04:29:49;0.60;99.90
17632;DHT22;8934;51.194;17.150;2023-05-01T04:32:37;0.80;99.90
17632;DHT22;8934;51.194;17.150;2023-05-01T04:35:24;0.90;99.90
17632;DHT22;8934;51.194;17.150;2023-05-01T04:38:12;1.10;99.90
17632;DHT22;8934;51.194;17.150;2023-05-01T04:41:01;1.30;99.90
17632;DHT22;8934;51.194;17.150;2023-05-01T04:43:50;1.40;99.90
17632;DHT22;8934;51.194;17.150;2023-05-01T04:46:38;1.60;99.90
17632;DHT22;8934;51.194;17.150;2023-05-01T04:49:25;1.80;99.90
17632;DHT22;8934;51.194;17.150;2023-05-01T04:52:13;2.00;99.90
17632;DHT22;8934;51.194;17.150;2023-05-01T04:55:12;2.20;99.90
17632;DHT22;8934;51.194;17.150;2023-05-01T04:58:16;2.40;99.90
17632;DHT22;8934;51.194;17.150;2023-05-01T05:01:10;2.70;99.90
17632;DHT22;8934;51.194;17.150;2023-05-01T05:03:58;2.90;99.90
17632;DHT22;8934;51.194;17.150;2023-05-01T05:06:47;3.00;99.90
17632;DHT22;8934;51.194;17.150;2023-05-01T05:09:44;3.20;99.90
17632;DHT22;8934;51.194;17.150;2023-05-01T05:12:32;3.40;99.90
17632;DHT22;8934;51.194;17.150;2023-05-01T05:15:19;3.60;99.90
17632;DHT22;8934;51.194;17.150;2023-05-01T05:18:08;3.80;99.90
17632;DHT22;8934;51.194;17.150;2023-05-01T05:20:56;4.10;99.90
17632;DHT22;8934;51.194;17.150;2023-05-01T05:23:45;4.30;99.90
17632;DHT22;8934;51.194;17.150;2023-05-01T05:26:32;4.50;99.90
17632;DHT22;8934;51.194;17.150;2023-05-01T05:29:22;4.80;99.90
17632;DHT22;8934;51.194;17.150;2023-05-01T05:32:10;5.00;99.90
17632;DHT22;8934;51.194;17.150;2023-05-01T05:34:59;5.20;99.90
17632;DHT22;8934;51.194;17.150;2023-05-01T05:37:46;5.40;99.90
17632;DHT22;8934;51.194;17.150;2023-05-01T05:40:34;5.60;99.90
17632;DHT22;8934;51.194;17.150;2023-05-01T05:43:22;5.80;99.90
17632;DHT22;8934;51.194;17.150;2023-05-01T05:46:13;6.00;99.90
17632;DHT22;8934;51.194;17.150;2023-05-01T05:49:01;6.20;99.90
17632;DHT22;8934;51.194;17.150;2023-05-01T05:51:51;6.40;99.90
17632;DHT22;8934;51.194;17.150;2023-05-01T05:54:39;6.60;99.90
17632;DHT22;8934;51.194;17.150;2023-05-01T05:57:27;6.80;99.90
17632;DHT22;8934;51.194;17.150;2023-05-01T06:00:15;7.00;99.90
17632;DHT22;8934;51.194;17.150;2023-05-01T06:03:09;7.20;99.90
17632;DHT22;8934;51.194;17.150;2023-05-01T06:05:56;7.40;99.90
17632;DHT22;8934;51.194;17.150;2023-05-01T06:08:46;7.60;99.90
17632;DHT22;8934;51.194;17.150;2023-05-01T06:11:33;7.70;99.90
17632;DHT22;8934;51.194;17.150;2023-05-01T06:14:22;7.90;99.90
17632;DHT22;8934;51.194;17.150;2023-05-01T06:17:09;8.10;99.90
17632;DHT22;8934;51.194;17.150;2023-05-01T06:19:57;8.30;99.90
17632;DHT22;8934;51.194;17.150;2023-05-01T06:22:46;8.50;99.90
17632;DHT22;8934;51.194;17.150;2023-05-01T06:25:43;8.70;99.90
17632;DHT22;8934;51.194;17.150;2023-05-01T06:28:30;8.90;99.90
17632;DHT22;8934;51.194;17.150;2023-05-01T06:31:18;9.10;99.90
17632;DHT22;8934;51.194;17.150;2023-05-01T06:34:10;9.20;99.90
17632;DHT22;8934;51.194;17.150;2023-05-01T06:37:12;9.40;99.90
17632;DHT22;8934;51.194;17.150;2023-05-01T06:40:00;9.60;99.90
17632;DHT22;8934;51.194;17.150;2023-05-01T06:42:49;9.70;99.90
17632;DHT22;8934;51.194;17.150;2023-05-01T06:45:37;9.90;99.90
17632;DHT22;8934;51.194;17.150;2023-05-01T06:48:27;10.00;99.90
17632;DHT22;8934;51.194;17.150;2023-05-01T06:51:14;10.30;99.90
17632;DHT22;8934;51.194;17.150;2023-05-01T06:54:04;10.50;99.90
17632;DHT22;8934;51.194;17.150;2023-05-01T06:56:52;10.70;99.90
17632;DHT22;8934;51.194;17.150;2023-05-01T06:59:41;10.90;99.90
17632;DHT22;8934;51.194;17.150;2023-05-01T07:02:28;11.10;99.90
17632;DHT22;8934;51.194;17.150;2023-05-01T07:05:16;11.40;99.90
17632;DHT22;8934;51.194;17.150;2023-05-01T07:08:04;11.50;99.90
17632;DHT22;8934;51.194;17.150;2023-05-01T07:10:52;11.70;99.90
17632;DHT22;8934;51.194;17.150;2023-05-01T07:13:39;11.90;99.90
17632;DHT22;8934;51.194;17.150;2023-05-01T07:16:29;12.00;99.90
17632;DHT22;8934;51.194;17.150;2023-05-01T07:19:16;12.20;99.90
17632;DHT22;8934;51.194;17.150;2023-05-01T07:22:04;12.40;99.90
17632;DHT22;8934;51.194;17.150;2023-05-01T07:24:51;12.50;99.90
17632;DHT22;8934;51.194;17.150;2023-05-01T07:27:39;12.70;99.90
17632;DHT22;8934;51.194;17.150;2023-05-01T07:30:27;12.90;99.90
17632;DHT22;8934;51.194;17.150;2023-05-01T07:33:17;13.10;99.90
17632;DHT22;8934;51.194;17.150;2023-05-01T07:36:05;13.40;99.90
17632;DHT22;8934;51.194;17.150;2023-05-01T07:38:53;13.60;99.90
17632;DHT22;8934;51.194;17.150;2023-05-01T07:41:40;13.80;99.90
17632;DHT22;8934;51.194;17.150;2023-05-01T07:44:28;14.00;99.90
17632;DHT22;8934;51.194;17.150;2023-05-01T07:47:16;14.20;99.90
17632;DHT22;8934;51.194;17.150;2023-05-01T07:50:09;14.20;99.90
17632;DHT22;8934;51.194;17.150;2023-05-01T07:52:57;14.50;99.90
17632;DHT22;8934;51.194;17.150;2023-05-01T07:55:44;14.70;99.90
17632;DHT22;8934;51.194;17.150;2023-05-01T07:58:32;14.80;99.90
17632;DHT22;8934;51.194;17.150;2023-05-01T08:01:19;14.90;99.90
17632;DHT22;8934;51.194;17.150;2023-05-01T08:04:07;15.00;99.90
17632;DHT22;8934;51.194;17.150;2023-05-01T08:06:57;15.30;99.90
17632;DHT22;8934;51.194;17.150;2023-05-01T08:09:45;15.50;99.90
17632;DHT22;8934;51.194;17.150;2023-05-01T08:12:33;15.70;99.90
17632;DHT22;8934;51.194;17.150;2023-05-01T08:15:20;15.70;99.90
17632;DHT22;8934;51.194;17.150;2023-05-01T08:18:08;15.80;99.90
17632;DHT22;8934;51.194;17.150;2023-05-01T08:20:56;15.80;99.90
17632;DHT22;8934;51.194;17.150;2023-05-01T08:23:45;16.00;99.90
17632;DHT22;8934;51.194;17.150;2023-05-01T08:26:33;16.10;99.80
17632;DHT22;8934;51.194;17.150;2023-05-01T08:29:20;16.30;99.10
17632;DHT22;8934;51.194;17.150;2023-05-01T08:32:08;16.30;98.20
17632;DHT22;8934;51.194;17.150;2023-05-01T08:34:56;16.40;99.10
17632;DHT22;8934;51.194;17.150;2023-05-01T08:37:43;16.60;98.00
17632;DHT22;8934;51.194;17.150;2023-05-01T08:40:35;16.80;94.70
17632;DHT22;8934;51.194;17.150;2023-05-01T08:43:24;16.90;96.80
17632;DHT22;8934;51.194;17.150;2023-05-01T08:46:16;17.10;95.80
17632;DHT22;8934;51.194;17.150;2023-05-01T08:49:08;17.30;96.70
17632;DHT22;8934;51.194;17.150;2023-05-01T08:51:57;17.60;95.90
17632;DHT22;8934;51.194;17.150;2023-05-01T08:54:49;17.80;95.40
17632;DHT22;8934;51.194;17.150;2023-05-01T08:57:44;17.90;94.70
17632;DHT22;8934;51.194;17.150;2023-05-01T09:00:34;18.10;95.20
17632;DHT22;8934;51.194;17.150;2023-05-01T09:03:24;18.30;94.70
17632;DHT22;8934;51.194;17.150;2023-05-01T09:06:13;18.50;92.40
17632;DHT22;8934;51.194;17.150;2023-05-01T09:09:02;18.60;94.60
17632;DHT22;8934;51.194;17.150;2023-05-01T09:11:50;18.70;95.10
17632;DHT22;8934;51.194;17.150;2023-05-01T09:14:39;18.90;93.30
17632;DHT22;8934;51.194;17.150;2023-05-01T09:17:27;19.00;92.50
17632;DHT22;8934;51.194;17.150;2023-05-01T09:20:18;19.00;89.70
17632;DHT22;8934;51.194;17.150;2023-05-01T09:23:06;18.90;92.90
17632;DHT22;8934;51.194;17.150;2023-05-01T09:25:54;19.10;92.90
17632;DHT22;8934;51.194;17.150;2023-05-01T09:28:44;19.30;91.60
17632;DHT22;8934;51.194;17.150;2023-05-01T09:31:33;19.40;90.80
17632;DHT22;8934;51.194;17.150;2023-05-01T09:34:21;19.50;90.80
17632;DHT22;8934;51.194;17.150;2023-05-01T09:37:11;19.60;91.20
17632;DHT22;8934;51.194;17.150;2023-05-01T09:40:05;19.70;92.80
17632;DHT22;8934;51.194;17.150;2023-05-01T09:42:53;19.80;91.20
17632;DHT22;8934;51.194;17.150;2023-05-01T09:45:41;19.90;90.60
17632;DHT22;8934;51.194;17.150;2023-05-01T09:48:31;20.00;90.20
17632;DHT22;8934;51.194;17.150;2023-05-01T09:51:26;20.30;90.70
17632;DHT22;8934;51.194;17.150;2023-05-01T09:54:17;20.40;89.40
17632;DHT22;8934;51.194;17.150;2023-05-01T09:57:06;20.60;90.40
17632;DHT22;8934;51.194;17.150;2023-05-01T10:00:03;20.60;87.20
17632;DHT22;8934;51.194;17.150;2023-05-01T10:02:53;20.70;86.50
17632;DHT22;8934;51.194;17.150;2023-05-01T10:05:43;20.90;85.90
17632;DHT22;8934;51.194;17.150;2023-05-01T10:08:46;20.70;84.20
17632;DHT22;8934;51.194;17.150;2023-05-01T10:11:46;20.50;83.40
17632;DHT22;8934;51.194;17.150;2023-05-01T10:14:49;20.50;84.40
17632;DHT22;8934;51.194;17.150;2023-05-01T10:17:38;20.40;85.60
17632;DHT22;8934;51.194;17.150;2023-05-01T10:20:26;20.40;84.00
17632;DHT22;8934;51.194;17.150;2023-05-01T10:23:15;20.50;84.00
17632;DHT22;8934;51.194;17.150;2023-05-01T10:26:03;20.60;86.10
17632;DHT22;8934;51.194;17.150;2023-05-01T10:28:53;20.70;82.70
17632;DHT22;8934;51.194;17.150;2023-05-01T10:31:44;20.90;81.20
17632;DHT22;8934;51.194;17.150;2023-05-01T10:34:36;21.10;82.70
17632;DHT22;8934;51.194;17.150;2023-05-01T11:28:25;24.10;70.40
17632;DHT22;8934;51.194;17.150;2023-05-01T11:31:16;24.10;69.80
17632;DHT22;8934;51.194;17.150;2023-05-01T11:34:05;24.00;69.20
17632;DHT22;8934;51.194;17.150;2023-05-01T11:36:52;24.00;68.10
17632;DHT22;8934;51.194;17.150;2023-05-01T11:39:48;24.20;72.70
17632;DHT22;8934;51.194;17.150;2023-05-01T11:42:36;24.50;72.80
17632;DHT22;8934;51.194;17.150;2023-05-01T11:45:25;24.90;69.10
17632;DHT22;8934;51.194;17.150;2023-05-01T11:48:13;24.70;65.60
17632;DHT22;8934;51.194;17.150;2023-05-01T11:51:11;24.30;64.30
17632;DHT22;8934;51.194;17.150;2023-05-01T11:53:59;24.10;69.00
17632;DHT22;8934;51.194;17.150;2023-05-01T11:56:47;24.30;69.50
17632;DHT22;8934;51.194;17.150;2023-05-01T11:59:45;24.20;66.10
17632;DHT22;8934;51.194;17.150;2023-05-01T12:02:35;24.20;68.30
17632;DHT22;8934;51.194;17.150;2023-05-01T12:05:23;24.30;70.30
17632;DHT22;8934;51.194;17.150;2023-05-01T12:08:14;24.40;65.20
17632;DHT22;8934;51.194;17.150;2023-05-01T12:11:05;24.30;67.80
17632;DHT22;8934;51.194;17.150;2023-05-01T12:13:53;24.10;66.90
17632;DHT22;8934;51.194;17.150;2023-05-01T12:16:41;23.90;69.50
17632;DHT22;8934;51.194;17.150;2023-05-01T12:19:31;23.80;69.00
17632;DHT22;8934;51.194;17.150;2023-05-01T12:22:20;23.90;70.80
17632;DHT22;8934;51.194;17.150;2023-05-01T12:25:08;24.20;67.00
17632;DHT22;8934;51.194;17.150;2023-05-01T12:27:56;24.40;64.40
17632;DHT22;8934;51.194;17.150;2023-05-01T12:30:46;24.30;64.80
17632;DHT22;8934;51.194;17.150;2023-05-01T12:33:34;24.10;67.60
17632;DHT22;8934;51.194;17.150;2023-05-01T12:36:24;24.10;68.20
17632;DHT22;8934;51.194;17.150;2023-05-01T12:39:12;24.30;68.40
17632;DHT22;8934;51.194;17.150;2023-05-01T12:42:00;24.60;66.60
17632;DHT22;8934;51.194;17.150;2023-05-01T12:44:48;24.90;67.20
17632;DHT22;8934;51.194;17.150;2023-05-01T12:47:44;25.20;62.00
17632;DHT22;8934;51.194;17.150;2023-05-01T12:50:35;25.20;59.90
17632;DHT22;8934;51.194;17.150;2023-05-01T12:53:27;25.20;63.30
17632;DHT22;8934;51.194;17.150;2023-05-01T12:56:20;25.50;66.50
17632;DHT22;8934;51.194;17.150;2023-05-01T12:59:19;25.70;62.00
17632;DHT22;8934;51.194;17.150;2023-05-01T13:02:08;25.70;60.60
17632;DHT22;8934;51.194;17.150;2023-05-01T13:05:08;25.50;58.80
17632;DHT22;8934;51.194;17.150;2023-05-01T13:07:56;25.10;57.10
17632;DHT22;8934;51.194;17.150;2023-05-01T13:10:45;25.10;59.50
17632;DHT22;8934;51.194;17.150;2023-05-01T13:13:34;25.20;58.90
17632;DHT22;8934;51.194;17.150;2023-05-01T13:16:23;25.30;57.90
17632;DHT22;8934;51.194;17.150;2023-05-01T13:19:12;25.20;58.50
17632;DHT22;8934;51.194;17.150;2023-05-01T13:22:00;25.00;59.30
17632;DHT22;8934;51.194;17.150;2023-05-01T13:24:48;25.20;60.40
17632;DHT22;8934;51.194;17.150;2023-05-01T13:27:37;25.20;57.60
17632;DHT22;8934;51.194;17.150;2023-05-01T13:30:31;25.40;62.50
17632;DHT22;8934;51.194;17.150;2023-05-01T13:33:19;25.70;58.60
17632;DHT22;8934;51.194;17.150;2023-05-01T13:36:08;25.80;58.80
17632;DHT22;8934;51.194;17.150;2023-05-01T13:39:17;25.70;58.40
17632;DHT22;8934;51.194;17.150;2023-05-01T13:42:06;25.50;58.60
17632;DHT22;8934;51.194;17.150;2023-05-01T13:44:56;25.40;58.20
17632;DHT22;8934;51.194;17.150;2023-05-01T13:47:44;25.20;61.10
17632;DHT22;8934;51.194;17.150;2023-05-01T13:50:33;25.00;59.60
17632;DHT22;8934;51.194;17.150;2023-05-01T13:53:21;24.70;63.50
17632;DHT22;8934;51.194;17.150;2023-05-01T13:56:10;24.70;61.50
17632;DHT22;8934;51.194;17.150;2023-05-01T13:58:58;24.60;61.80
17632;DHT22;8934;51.194;17.150;2023-05-01T14:01:47;24.80;61.00
17632;DHT22;8934;51.194;17.150;2023-05-01T14:04:36;24.90;59.40
17632;DHT22;8934;51.194;17.150;2023-05-01T14:07:26;24.80;58.70
17632;DHT22;8934;51.194;17.150;2023-05-01T14:10:14;25.00;58.20
17632;DHT22;8934;51.194;17.150;2023-05-01T14:13:02;25.30;59.30
17632;DHT22;8934;51.194;17.150;2023-05-01T14:15:51;25.60;58.40
17632;DHT22;8934;51.194;17.150;2023-05-01T14:18:44;25.80;58.50
17632;DHT22;8934;51.194;17.150;2023-05-01T14:21:37;25.90;61.80
17632;DHT22;8934;51.194;17.150;2023-05-01T14:24:26;25.70;60.60
17632;DHT22;8934;51.194;17.150;2023-05-01T14:27:14;25.40;62.30
17632;DHT22;8934;51.194;17.150;2023-05-01T14:30:05;25.20;58.00
17632;DHT22;8934;51.194;17.150;2023-05-01T14:32:54;25.20;59.60
17632;DHT22;8934;51.194;17.150;2023-05-01T14:35:48;25.50;58.30
17632;DHT22;8934;51.194;17.150;2023-05-01T14:38:38;25.70;58.80
17632;DHT22;8934;51.194;17.150;2023-05-01T14:41:26;25.60;59.90
17632;DHT22;8934;51.194;17.150;2023-05-01T14:44:17;25.60;59.70
17632;DHT22;8934;51.194;17.150;2023-05-01T14:47:07;25.40;58.40
17632;DHT22;8934;51.194;17.150;2023-05-01T14:49:55;25.10;60.00
17632;DHT22;8934;51.194;17.150;2023-05-01T14:52:44;25.20;59.30
17632;DHT22;8934;51.194;17.150;2023-05-01T14:55:32;25.40;58.30
17632;DHT22;8934;51.194;17.150;2023-05-01T14:58:20;25.80;61.10
17632;DHT22;8934;51.194;17.150;2023-05-01T15:01:07;26.20;59.90
17632;DHT22;8934;51.194;17.150;2023-05-01T15:03:55;26.60;57.90
17632;DHT22;8934;51.194;17.150;2023-05-01T15:06:46;26.80;57.20
17632;DHT22;8934;51.194;17.150;2023-05-01T15:09:35;26.90;59.20
17632;DHT22;8934;51.194;17.150;2023-05-01T15:12:23;26.90;57.80
17632;DHT22;8934;51.194;17.150;2023-05-01T15:15:11;26.80;56.70
17632;DHT22;8934;51.194;17.150;2023-05-01T15:17:59;26.80;58.00
17632;DHT22;8934;51.194;17.150;2023-05-01T15:20:47;26.70;57.80
17632;DHT22;8934;51.194;17.150;2023-05-01T15:23:34;26.90;57.80
17632;DHT22;8934;51.194;17.150;2023-05-01T15:26:24;27.20;57.90
17632;DHT22;8934;51.194;17.150;2023-05-01T15:29:12;27.40;60.30
17632;DHT22;8934;51.194;17.150;2023-05-01T15:31:59;27.60;57.10
17632;DHT22;8934;51.194;17.150;2023-05-01T15:34:58;27.40;56.20
17632;DHT22;8934;51.194;17.150;2023-05-01T15:37:46;27.30;56.90
17632;DHT22;8934;51.194;17.150;2023-05-01T15:40:34;27.20;56.20
17632;DHT22;8934;51.194;17.150;2023-05-01T15:43:23;27.20;57.70
17632;DHT22;8934;51.194;17.150;2023-05-01T15:46:10;27.10;57.90
17632;DHT22;8934;51.194;17.150;2023-05-01T15:49:00;26.50;57.30
17632;DHT22;8934;51.194;17.150;2023-05-01T15:51:48;26.00;59.30
17632;DHT22;8934;51.194;17.150;2023-05-01T15:54:35;26.10;56.60
17632;DHT22;8934;51.194;17.150;2023-05-01T15:57:23;26.30;58.70
17632;DHT22;8934;51.194;17.150;2023-05-01T16:00:13;26.30;59.60
17632;DHT22;8934;51.194;17.150;2023-05-01T16:03:02;26.20;57.90
17632;DHT22;8934;51.194;17.150;2023-05-01T16:05:50;26.30;58.20
17632;DHT22;8934;51.194;17.150;2023-05-01T16:08:38;26.20;58.10
17632;DHT22;8934;51.194;17.150;2023-05-01T16:11:25;26.10;59.10
17632;DHT22;8934;51.194;17.150;2023-05-01T16:14:14;26.00;59.60
17632;DHT22;8934;51.194;17.150;2023-05-01T16:17:05;26.00;60.00
17632;DHT22;8934;51.194;17.150;2023-05-01T16:19:53;26.20;59.70
17632;DHT22;8934;51.194;17.150;2023-05-01T16:22:42;26.60;59.70
17632;DHT22;8934;51.194;17.150;2023-05-01T16:25:29;26.70;59.60
17632;DHT22;8934;51.194;17.150;2023-05-01T16:28:18;26.60;61.40
17632;DHT22;8934;51.194;17.150;2023-05-01T16:31:07;26.40;62.00
17632;DHT22;8934;51.194;17.150;2023-05-01T16:34:14;25.70;64.70
17632;DHT22;8934;51.194;17.150;2023-05-01T16:37:04;24.50;65.70
17632;DHT22;8934;51.194;17.150;2023-05-01T16:39:52;23.60;68.30
17632;DHT22;8934;51.194;17.150;2023-05-01T16:42:39;22.90;71.00
17632;DHT22;8934;51.194;17.150;2023-05-01T16:45:27;22.20;72.80
17632;DHT22;8934;51.194;17.150;2023-05-01T16:48:19;21.80;73.20
17632;DHT22;8934;51.194;17.150;2023-05-01T16:51:08;21.70;75.30
17632;DHT22;8934;51.194;17.150;2023-05-01T16:53:56;21.60;75.20
17632;DHT22;8934;51.194;17.150;2023-05-01T16:56:44;21.90;74.90
17632;DHT22;8934;51.194;17.150;2023-05-01T16:59:31;22.40;74.70
17632;DHT22;8934;51.194;17.150;2023-05-01T17:02:19;22.70;73.70
17632;DHT22;8934;51.194;17.150;2023-05-01T17:05:07;22.70;74.20
17632;DHT22;8934;51.194;17.150;2023-05-01T17:07:56;22.80;74.10
17632;DHT22;8934;51.194;17.150;2023-05-01T17:10:44;22.80;73.70
17632;DHT22;8934;51.194;17.150;2023-05-01T17:13:32;22.80;73.50
17632;DHT22;8934;51.194;17.150;2023-05-01T17:16:20;22.80;73.60
17632;DHT22;8934;51.194;17.150;2023-05-01T17:19:08;22.70;75.00
17632;DHT22;8934;51.194;17.150;2023-05-01T17:21:56;22.40;74.90
17632;DHT22;8934;51.194;17.150;2023-05-01T17:24:45;21.90;76.80
17632;DHT22;8934;51.194;17.150;2023-05-01T17:27:33;21.20;78.30
17632;DHT22;8934;51.194;17.150;2023-05-01T17:30:22;20.60;80.90
17632;DHT22;8934;51.194;17.150;2023-05-01T17:33:10;20.10;81.70
17632;DHT22;8934;51.194;17.150;2023-05-01T17:35:58;19.70;82.90
17632;DHT22;8934;51.194;17.150;2023-05-01T17:38:46;19.30;83.80
17632;DHT22;8934;51.194;17.150;2023-05-01T17:41:34;19.00;85.60
17632;DHT22;8934;51.194;17.150;2023-05-01T17:44:22;18.60;86.30
17632;DHT22;8934;51.194;17.150;2023-05-01T17:47:10;18.30;87.80
17632;DHT22;8934;51.194;17.150;2023-05-01T17:49:57;18.00;88.80
17632;DHT22;8934;51.194;17.150;2023-05-01T17:52:46;17.80;90.10
17632;DHT22;8934;51.194;17.150;2023-05-01T17:55:33;17.50;90.70
17632;DHT22;8934;51.194;17.150;2023-05-01T17:58:25;17.30;91.40
17632;DHT22;8934;51.194;17.150;2023-05-01T18:01:13;17.10;91.70
17632;DHT22;8934;51.194;17.150;2023-05-01T18:04:01;16.80;92.60
17632;DHT22;8934;51.194;17.150;2023-05-01T18:06:49;16.60;93.40
17632;DHT22;8934;51.194;17.150;2023-05-01T18:09:37;16.30;94.50
17632;DHT22;8934;51.194;17.150;2023-05-01T18:12:25;16.10;94.90
17632;DHT22;8934;51.194;17.150;2023-05-01T18:15:14;16.00;96.10
17632;DHT22;8934;51.194;17.150;2023-05-01T18:18:08;15.80;96.90
17632;DHT22;8934;51.194;17.150;2023-05-01T18:20:56;15.60;97.60
17632;DHT22;8934;51.194;17.150;2023-05-01T18:23:44;15.40;98.70
17632;DHT22;8934;51.194;17.150;2023-05-01T18:26:34;15.20;99.90
17632;DHT22;8934;51.194;17.150;2023-05-01T18:29:21;15.00;99.90
17632;DHT22;8934;51.194;17.150;2023-05-01T18:32:10;14.90;99.90
17632;DHT22;8934;51.194;17.150;2023-05-01T18:34:59;14.70;99.90
17632;DHT22;8934;51.194;17.150;2023-05-01T18:37:48;14.60;99.90
17632;DHT22;8934;51.194;17.150;2023-05-01T18:40:36;14.50;99.90
17632;DHT22;8934;51.194;17.150;2023-05-01T18:43:23;14.40;99.90
17632;DHT22;8934;51.194;17.150;2023-05-01T18:46:13;14.20;99.90
17632;DHT22;8934;51.194;17.150;2023-05-01T18:49:02;14.20;99.90
17632;DHT22;8934;51.194;17.150;2023-05-01T18:51:50;14.10;99.90
17632;DHT22;8934;51.194;17.150;2023-05-01T18:54:38;14.00;99.90
17632;DHT22;8934;51.194;17.150;2023-05-01T18:57:26;14.00;99.90